createdAt,value
2023-05-08T00:01:17.876Z,5.55
2023-05-08T00:03:44.509Z,4.95
2023-05-08T00:06:11.074Z,6.32
2023-05-08T00:08:37.566Z,5.10
2023-05-08T00:11:04.962Z,5.25
2023-05-08T00:13:31.389Z,4.93
2023-05-08T00:15:57.823Z,6.45
2023-05-08T00:18:24.356Z,4.78
2023-05-08T00:20:50.814Z,6.43
2023-05-08T00:23:17.299Z,4.35
2023-05-08T00:25:43.818Z,6.15
2023-05-08T00:28:10.286Z,6.00
2023-05-08T00:30:37.869Z,7.13
2023-05-08T00:33:04.575Z,5.65
2023-05-08T00:35:31.188Z,4.90
2023-05-08T00:37:57.780Z,5.70
2023-05-08T00:40:24.359Z,5.78
2023-05-08T00:42:51.085Z,5.70
2023-05-08T00:45:18.014Z,6.55
2023-05-08T00:47:44.563Z,5.25
2023-05-08T00:50:11.361Z,4.90
2023-05-08T00:52:38.738Z,5.97
2023-05-08T00:55:06.548Z,6.28
2023-05-08T00:57:37.792Z,6.85
2023-05-08T01:00:05.510Z,6.30
2023-05-08T01:02:34.309Z,5.15
2023-05-08T01:05:00.894Z,4.22
2023-05-08T01:07:27.856Z,5.38
2023-05-08T01:09:54.293Z,5.18
2023-05-08T01:12:28.434Z,5.65
2023-05-08T01:18:10.240Z,7.07
2023-05-08T01:20:50.702Z,6.20
2023-05-08T01:23:56.922Z,5.88
2023-05-08T01:26:51.314Z,5.97
2023-05-08T01:29:33.835Z,6.50
2023-05-08T01:32:05.981Z,6.22
2023-05-08T01:34:35.529Z,6.35
2023-05-08T01:37:05.221Z,6.13
2023-05-08T01:39:55.464Z,5.47
2023-05-08T01:42:38.161Z,5.72
2023-05-08T01:45:10.903Z,5.35
2023-05-08T01:47:38.471Z,6.57
2023-05-08T01:50:13.858Z,5.55
2023-05-08T01:52:45.511Z,5.63
2023-05-08T01:55:17.819Z,5.85
2023-05-08T01:57:48.883Z,5.32
2023-05-08T02:00:19.378Z,6.05
2023-05-08T02:02:48.112Z,5.72
2023-05-08T02:05:16.264Z,5.97
2023-05-08T02:07:45.563Z,5.75
2023-05-08T02:10:13.523Z,6.60
2023-05-08T02:12:41.910Z,5.75
2023-05-08T02:15:09.791Z,6.78
2023-05-08T02:17:39.652Z,8.00
2023-05-08T02:20:07.728Z,6.95
2023-05-08T02:22:35.263Z,5.78
2023-05-08T02:25:02.146Z,5.57
2023-05-08T02:27:30.242Z,6.28
2023-05-08T02:29:57.593Z,6.57
2023-05-08T02:32:26.756Z,5.90
2023-05-08T02:35:03.066Z,6.15
2023-05-08T02:37:31.866Z,5.75
2023-05-08T02:39:58.756Z,6.45
2023-05-08T02:42:25.563Z,6.20
2023-05-08T02:44:52.188Z,5.95
2023-05-08T02:47:27.595Z,5.88
2023-05-08T02:50:01.180Z,6.57
2023-05-08T02:53:03.252Z,6.10
2023-05-08T02:55:42.701Z,6.20
2023-05-08T02:58:20.386Z,6.15
2023-05-08T03:00:56.351Z,7.57
2023-05-08T03:03:27.124Z,6.18
2023-05-08T03:05:56.749Z,7.18
2023-05-08T03:08:34.494Z,6.22
2023-05-08T03:11:08.387Z,7.07
2023-05-08T03:13:36.204Z,6.22
2023-05-08T03:16:06.556Z,7.05
2023-05-08T03:18:42.941Z,7.22
2023-05-08T03:21:13.115Z,8.02
2023-05-08T03:23:40.799Z,6.85
2023-05-08T03:26:08.471Z,7.75
2023-05-08T03:28:36.443Z,6.68
2023-05-08T03:31:05.201Z,7.60
2023-05-08T03:33:32.757Z,6.25
2023-05-08T03:35:59.716Z,7.35
2023-05-08T03:38:26.697Z,6.07
2023-05-08T03:40:53.349Z,5.82
2023-05-08T03:43:21.075Z,5.90
2023-05-08T03:45:47.666Z,5.82
2023-05-08T03:48:15.425Z,5.82
2023-05-08T03:50:43.637Z,6.25
2023-05-08T03:53:10.256Z,7.03
2023-05-08T03:55:37.552Z,6.78
2023-05-08T03:58:31.382Z,6.50
2023-05-08T04:01:11.402Z,6.35
2023-05-08T04:03:58.147Z,7.28
2023-05-08T04:06:53.029Z,5.70
2023-05-08T04:09:51.563Z,9.13
2023-05-08T04:12:22.459Z,7.55
2023-05-08T04:14:56.902Z,6.45
2023-05-08T04:17:36.211Z,6.80
2023-05-08T04:20:04.929Z,6.75
2023-05-08T04:22:33.823Z,6.47
2023-05-08T04:25:03.960Z,7.18
2023-05-08T04:27:31.601Z,6.30
2023-05-08T04:29:58.646Z,7.75
2023-05-08T04:32:27.372Z,7.95
2023-05-08T04:34:55.366Z,7.35
2023-05-08T04:37:28.159Z,6.57
2023-05-08T04:39:57.185Z,7.10
2023-05-08T04:42:25.924Z,6.22
2023-05-08T04:44:54.825Z,6.35
2023-05-08T04:47:23.995Z,7.28
2023-05-08T04:49:51.288Z,6.32
2023-05-08T04:52:17.762Z,13.20
2023-05-08T04:54:44.536Z,8.10
2023-05-08T04:57:11.215Z,7.00
2023-05-08T04:59:38.005Z,9.57
2023-05-08T05:02:06.638Z,7.07
2023-05-08T05:04:33.997Z,8.48
2023-05-08T05:07:00.949Z,6.90
2023-05-08T05:09:27.389Z,8.60
2023-05-08T05:11:53.877Z,7.05
2023-05-08T05:14:20.907Z,7.30
2023-05-08T05:16:47.420Z,8.40
2023-05-08T05:19:14.234Z,12.10
2023-05-08T05:21:41.020Z,8.98
2023-05-08T05:24:07.985Z,10.35
2023-05-08T05:26:36.849Z,9.77
2023-05-08T05:29:04.058Z,7.50
2023-05-08T05:31:30.856Z,8.25
2023-05-08T05:33:57.527Z,8.60
2023-05-08T05:36:24.979Z,9.10
2023-05-08T05:38:51.517Z,8.43
2023-05-08T05:41:18.499Z,9.13
2023-05-08T05:43:46.142Z,8.63
2023-05-08T05:46:13.141Z,8.68
2023-05-08T05:48:40.604Z,8.57
2023-05-08T05:51:09.341Z,8.18
2023-05-08T05:53:36.309Z,8.05
2023-05-08T05:56:02.926Z,9.00
2023-05-08T05:58:31.162Z,7.85
2023-05-08T06:01:01.009Z,10.18
2023-05-08T06:03:28.233Z,8.73
2023-05-08T06:05:56.457Z,11.40
2023-05-08T06:08:23.189Z,7.82
2023-05-08T06:10:49.640Z,11.63
2023-05-08T06:13:16.568Z,8.73
2023-05-08T06:15:43.212Z,8.23
2023-05-08T06:18:09.868Z,10.30
2023-05-08T06:20:39.602Z,9.27
2023-05-08T06:23:06.287Z,8.88
2023-05-08T06:25:32.915Z,8.73
2023-05-08T06:27:59.582Z,9.02
2023-05-08T06:30:26.128Z,9.30
2023-05-08T06:32:52.662Z,7.78
2023-05-08T06:35:19.576Z,9.38
2023-05-08T06:37:46.663Z,10.02
2023-05-08T06:40:13.724Z,10.65
2023-05-08T06:42:41.023Z,9.32
2023-05-08T06:45:08.944Z,7.80
2023-05-08T06:47:35.457Z,8.57
2023-05-08T06:50:01.937Z,9.88
2023-05-08T06:52:28.343Z,11.48
2023-05-08T06:54:54.858Z,8.77
2023-05-08T06:57:21.320Z,11.10
2023-05-08T06:59:47.753Z,10.23
2023-05-08T07:02:16.059Z,11.45
2023-05-08T07:04:44.172Z,11.18
2023-05-08T07:07:11.737Z,12.63
2023-05-08T07:09:38.233Z,10.98
2023-05-08T07:12:05.049Z,10.65
2023-05-08T07:14:31.590Z,11.20
2023-05-08T07:16:58.579Z,11.05
2023-05-08T07:19:25.020Z,10.45
2023-05-08T07:21:51.504Z,11.65
2023-05-08T07:24:17.979Z,13.20
2023-05-08T07:26:44.814Z,11.95
2023-05-08T07:29:11.226Z,11.00
2023-05-08T07:31:39.499Z,10.90
2023-05-08T07:34:07.186Z,11.05
2023-05-08T07:36:33.839Z,12.95
2023-05-08T07:39:00.308Z,9.95
2023-05-08T07:41:27.103Z,11.10
2023-05-08T07:43:53.744Z,11.15
2023-05-08T07:46:20.442Z,10.75
2023-05-08T07:48:47.092Z,10.15
2023-05-08T07:51:14.118Z,10.55
2023-05-08T07:53:40.599Z,11.52
2023-05-08T07:56:07.453Z,12.73
2023-05-08T07:58:33.889Z,11.77
2023-05-08T08:01:00.478Z,9.57
2023-05-08T08:03:26.997Z,9.70
2023-05-08T08:05:53.437Z,12.00
2023-05-08T08:08:20.659Z,10.98
2023-05-08T08:10:47.125Z,11.82
2023-05-08T08:13:13.573Z,10.65
2023-05-08T08:15:40.040Z,11.65
2023-05-08T08:18:06.689Z,12.40
2023-05-08T08:20:33.713Z,14.18
2023-05-08T08:23:00.268Z,10.05
2023-05-08T08:25:27.757Z,11.73
2023-05-08T08:27:56.876Z,11.25
2023-05-08T08:30:23.362Z,12.45
2023-05-08T08:32:49.841Z,12.18
2023-05-08T08:35:17.116Z,13.38
2023-05-08T08:37:43.751Z,10.13
2023-05-08T08:40:10.410Z,9.77
2023-05-08T08:42:37.073Z,12.18
2023-05-08T08:45:03.746Z,10.88
2023-05-08T08:47:37.317Z,12.63
2023-05-08T08:50:05.239Z,11.85
2023-05-08T08:53:01.169Z,12.27
2023-05-08T08:55:28.202Z,11.00
2023-05-08T08:58:19.440Z,11.38
2023-05-08T09:00:47.688Z,11.43
2023-05-08T09:03:14.738Z,10.77
2023-05-08T09:05:41.406Z,9.63
2023-05-08T09:08:08.393Z,10.48
2023-05-08T09:10:36.022Z,9.20
2023-05-08T09:13:05.695Z,10.30
2023-05-08T09:15:33.182Z,9.75
2023-05-08T09:18:02.398Z,10.70
2023-05-08T09:20:29.234Z,9.80
2023-05-08T09:22:55.970Z,10.70
2023-05-08T09:25:23.147Z,11.60
2023-05-08T09:27:49.574Z,16.33
2023-05-08T09:30:16.059Z,10.98
2023-05-08T09:32:44.928Z,11.55
2023-05-08T09:35:12.773Z,11.35
2023-05-08T09:37:43.575Z,9.70
2023-05-08T09:40:20.664Z,11.60
2023-05-08T09:42:48.952Z,9.25
2023-05-08T09:45:32.799Z,11.00
2023-05-08T09:47:59.465Z,11.15
2023-05-08T09:50:26.135Z,9.65
2023-05-08T09:52:52.780Z,10.32
2023-05-08T09:55:19.283Z,10.23
2023-05-08T09:57:59.971Z,10.93
2023-05-08T10:00:28.537Z,10.60
2023-05-08T10:03:00.050Z,8.25
2023-05-08T10:05:31.020Z,8.55
2023-05-08T10:08:28.895Z,8.38
2023-05-08T10:11:13.189Z,9.23
2023-05-08T10:13:39.625Z,8.63
2023-05-08T10:16:07.943Z,8.90
2023-05-08T10:18:36.651Z,9.85
2023-05-08T10:21:07.585Z,9.13
2023-05-08T10:23:34.311Z,8.07
2023-05-08T10:26:28.774Z,9.77
2023-05-08T10:28:57.825Z,8.60
2023-05-08T10:31:34.676Z,9.57
2023-05-08T10:34:02.488Z,9.32
2023-05-08T10:36:31.117Z,8.32
2023-05-08T10:38:58.836Z,10.25
2023-05-08T10:41:26.663Z,9.13
2023-05-08T10:43:53.268Z,8.77
2023-05-08T10:46:34.164Z,10.05
2023-05-08T10:49:15.190Z,8.30
2023-05-08T10:52:06.511Z,9.25
2023-05-08T10:55:06.092Z,10.50
2023-05-08T10:57:32.579Z,6.90
2023-05-08T10:59:59.450Z,8.52
2023-05-08T11:02:31.506Z,6.70
2023-05-08T11:05:17.470Z,8.05
2023-05-08T11:07:55.571Z,7.35
2023-05-08T11:10:22.063Z,6.10
2023-05-08T11:12:51.887Z,6.82
2023-05-08T11:15:37.210Z,7.60
2023-05-08T11:18:05.822Z,6.65
2023-05-08T11:20:43.212Z,7.18
2023-05-08T11:23:25.970Z,8.15
2023-05-08T11:26:03.613Z,6.75
2023-05-08T11:28:41.686Z,10.75
2023-05-08T11:31:08.765Z,6.47
2023-05-08T11:33:40.902Z,5.22
2023-05-08T11:36:07.243Z,6.68
2023-05-08T11:38:36.243Z,5.80
2023-05-08T11:41:07.785Z,5.78
2023-05-08T11:43:34.472Z,6.68
2023-05-08T11:46:13.932Z,5.47
2023-05-08T11:48:40.922Z,8.15
2023-05-08T11:51:07.378Z,7.55
2023-05-08T11:53:36.405Z,5.93
2023-05-08T11:56:03.462Z,6.30
2023-05-08T11:58:30.931Z,6.32
2023-05-08T12:00:58.193Z,5.78
2023-05-08T12:03:25.601Z,5.97
2023-05-08T12:05:55.956Z,5.68
2023-05-08T12:08:22.538Z,6.82
2023-05-08T12:10:53.852Z,5.95
2023-05-08T12:13:23.019Z,7.00
2023-05-08T12:15:54.136Z,5.90
2023-05-08T12:18:21.672Z,5.97
2023-05-08T12:20:53.199Z,5.18
2023-05-08T12:23:20.352Z,7.13
2023-05-08T12:25:46.801Z,5.82
2023-05-08T12:28:13.422Z,5.88
2023-05-08T12:30:39.917Z,5.43
2023-05-08T12:33:06.662Z,6.43
2023-05-08T12:35:33.681Z,5.60
2023-05-08T12:38:05.852Z,5.68
2023-05-08T12:40:35.125Z,5.95
2023-05-08T12:43:03.490Z,4.97
2023-05-08T12:45:33.679Z,9.25
2023-05-08T12:48:02.493Z,6.07
2023-05-08T12:50:32.817Z,5.22
2023-05-08T12:53:04.482Z,4.40
2023-05-08T12:55:33.368Z,7.78
2023-05-08T12:58:05.868Z,6.25
2023-05-08T13:00:41.535Z,6.60
2023-05-08T13:03:09.820Z,5.43
2023-05-08T13:05:40.712Z,6.50
2023-05-08T13:08:10.800Z,5.85
2023-05-08T13:10:47.537Z,6.43
2023-05-08T13:13:15.693Z,6.18
2023-05-08T13:15:42.894Z,5.88
2023-05-08T13:18:09.485Z,5.57
2023-05-08T13:20:36.122Z,4.78
2023-05-08T13:23:03.168Z,4.13
2023-05-08T13:25:32.553Z,5.43
2023-05-08T13:27:59.850Z,5.05
2023-05-08T13:30:26.552Z,6.05
2023-05-08T13:32:53.723Z,4.45
2023-05-08T13:35:21.116Z,5.65
2023-05-08T13:37:48.304Z,5.50
2023-05-08T13:40:16.030Z,6.40
2023-05-08T13:42:42.661Z,4.57
2023-05-08T13:45:16.273Z,5.10
2023-05-08T13:47:43.014Z,5.40
2023-05-08T13:50:10.674Z,5.93
2023-05-08T13:52:38.244Z,5.05
2023-05-08T13:55:09.701Z,5.38
2023-05-08T13:57:36.311Z,4.75
2023-05-08T14:00:05.037Z,5.90
2023-05-08T14:02:34.046Z,5.10
2023-05-08T14:05:00.561Z,3.55
2023-05-08T14:07:28.050Z,4.40
2023-05-08T14:09:54.504Z,5.63
2023-05-08T14:12:20.996Z,5.18
2023-05-08T14:14:47.701Z,5.88
2023-05-08T14:17:14.270Z,4.03
2023-05-08T14:19:40.798Z,3.47
2023-05-08T14:22:07.395Z,5.18
2023-05-08T14:24:33.914Z,3.42
2023-05-08T14:27:01.937Z,4.60
2023-05-08T14:29:28.389Z,4.55
2023-05-08T14:31:54.929Z,8.68
2023-05-08T14:34:21.526Z,11.90
2023-05-08T14:36:48.052Z,11.98
2023-05-08T14:39:14.902Z,7.05
2023-05-08T14:41:51.131Z,6.88
2023-05-08T14:44:26.132Z,4.60
2023-05-08T14:46:52.576Z,6.13
2023-05-08T14:49:25.341Z,5.32
2023-05-08T14:51:59.782Z,5.13
2023-05-08T14:54:26.347Z,3.00
2023-05-08T14:56:52.930Z,5.45
2023-05-08T14:59:19.395Z,3.25
2023-05-08T15:01:45.865Z,3.13
2023-05-08T15:04:12.442Z,5.40
2023-05-08T15:06:40.318Z,4.82
2023-05-08T15:09:08.801Z,4.50
2023-05-08T15:11:36.494Z,4.32
2023-05-08T15:14:03.894Z,3.47
2023-05-08T15:16:30.615Z,5.32
2023-05-08T15:18:57.043Z,5.18
2023-05-08T15:21:26.378Z,4.40
2023-05-08T15:23:54.546Z,3.80
2023-05-08T15:26:22.097Z,4.25
2023-05-08T15:28:48.729Z,3.47
2023-05-08T15:31:15.792Z,4.13
2023-05-08T15:33:44.718Z,4.15
2023-05-08T15:36:15.210Z,2.42
2023-05-08T15:38:41.961Z,3.28
2023-05-08T15:41:14.714Z,3.78
2023-05-08T15:43:42.191Z,4.95
2023-05-08T15:46:08.825Z,5.10
2023-05-08T15:48:35.322Z,4.93
2023-05-08T15:51:01.766Z,3.33
2023-05-08T15:53:28.257Z,7.30
2023-05-08T15:55:55.537Z,13.13
2023-05-08T15:58:21.933Z,3.78
2023-05-08T16:00:48.351Z,3.42
2023-05-08T16:03:14.973Z,3.55
2023-05-08T16:05:41.565Z,3.05
2023-05-08T16:08:12.117Z,4.70
2023-05-08T16:10:39.595Z,5.63
2023-05-08T16:13:06.529Z,3.90
2023-05-08T16:15:33.097Z,4.57
2023-05-08T16:17:59.508Z,3.28
2023-05-08T16:20:26.085Z,2.88
2023-05-08T16:22:54.875Z,4.90
2023-05-08T16:25:21.776Z,5.35
2023-05-08T16:27:49.676Z,3.40
2023-05-08T16:30:17.006Z,3.97
2023-05-08T16:32:45.622Z,2.85
2023-05-08T16:35:12.282Z,4.05
2023-05-08T16:37:38.945Z,7.65
2023-05-08T16:40:07.077Z,6.05
2023-05-08T16:42:33.569Z,4.07
2023-05-08T16:44:59.957Z,2.78
2023-05-08T16:47:26.426Z,3.83
2023-05-08T16:49:53.779Z,4.40
2023-05-08T16:52:20.319Z,3.83
2023-05-08T16:54:46.715Z,5.50
2023-05-08T16:57:13.141Z,6.93
2023-05-08T16:59:39.522Z,3.63
2023-05-08T17:02:06.012Z,3.30
2023-05-08T17:04:32.523Z,4.97
2023-05-08T17:06:59.936Z,9.13
2023-05-08T17:09:27.813Z,7.13
2023-05-08T17:11:54.268Z,3.25
2023-05-08T17:14:20.878Z,3.53
2023-05-08T17:16:47.376Z,4.20
2023-05-08T17:19:13.860Z,4.97
2023-05-08T17:21:40.338Z,5.60
2023-05-08T17:24:07.113Z,3.03
2023-05-08T17:26:34.119Z,5.95
2023-05-08T17:29:00.698Z,7.03
2023-05-08T17:31:27.227Z,4.28
2023-05-08T17:33:53.687Z,5.68
2023-05-08T17:36:20.374Z,4.43
2023-05-08T17:38:47.300Z,3.67
2023-05-08T17:41:14.006Z,5.10
2023-05-08T17:43:40.563Z,3.42
2023-05-08T17:46:07.465Z,5.45
2023-05-08T17:48:34.446Z,2.58
2023-05-08T17:51:02.628Z,3.15
2023-05-08T17:53:32.644Z,4.45
2023-05-08T17:55:59.069Z,4.30
2023-05-08T17:58:25.565Z,5.40
2023-05-08T18:00:52.213Z,5.75
2023-05-08T18:03:19.093Z,5.80
2023-05-08T18:05:46.044Z,5.90
2023-05-08T18:08:12.458Z,8.23
2023-05-08T18:10:39.379Z,5.53
2023-05-08T18:13:06.185Z,6.35
2023-05-08T18:15:35.981Z,4.68
2023-05-08T18:18:02.567Z,8.88
2023-05-08T18:20:29.128Z,7.18
2023-05-08T18:22:55.787Z,7.00
2023-05-08T18:25:22.268Z,9.63
2023-05-08T18:27:50.028Z,5.82
2023-05-08T18:30:19.614Z,5.32
2023-05-08T18:32:46.325Z,5.18
2023-05-08T18:35:12.806Z,4.00
2023-05-08T18:37:39.240Z,4.55
2023-05-08T18:40:06.395Z,7.38
2023-05-08T18:42:32.890Z,4.40
2023-05-08T18:45:00.765Z,3.72
2023-05-08T18:47:27.214Z,5.68
2023-05-08T18:49:53.862Z,7.68
2023-05-08T18:52:20.524Z,5.63
2023-05-08T18:54:48.338Z,4.47
2023-05-08T18:57:15.123Z,6.03
2023-05-08T18:59:41.586Z,6.82
2023-05-08T19:02:08.062Z,6.20
2023-05-08T19:04:34.489Z,3.67
2023-05-08T19:07:01.029Z,6.50
2023-05-08T19:09:27.582Z,4.95
2023-05-08T19:11:53.987Z,5.32
2023-05-08T19:14:20.431Z,3.45
2023-05-08T19:16:47.045Z,5.70
2023-05-08T19:19:13.523Z,4.47
2023-05-08T19:21:39.966Z,4.90
2023-05-08T19:24:06.875Z,4.05
2023-05-08T19:26:33.312Z,5.00
2023-05-08T19:28:59.798Z,3.15
2023-05-08T19:31:26.329Z,6.85
2023-05-08T19:33:52.784Z,5.93
2023-05-08T19:36:19.186Z,6.10
2023-05-08T19:38:45.669Z,5.88
2023-05-08T19:41:12.081Z,5.80
2023-05-08T19:43:38.514Z,5.28
2023-05-08T19:46:05.008Z,5.05
2023-05-08T19:48:31.573Z,4.50
2023-05-08T19:51:05.358Z,8.98
2023-05-08T19:53:32.037Z,3.85
2023-05-08T19:55:58.588Z,4.88
2023-05-08T19:58:25.317Z,4.25
2023-05-08T20:00:52.025Z,5.78
2023-05-08T20:03:19.710Z,5.15
2023-05-08T20:05:46.260Z,4.72
2023-05-08T20:08:12.652Z,5.53
2023-05-08T20:10:39.077Z,4.40
2023-05-08T20:13:05.631Z,5.45
2023-05-08T20:15:32.171Z,5.93
2023-05-08T20:17:59.638Z,6.72
2023-05-08T20:20:27.146Z,5.03
2023-05-08T20:22:53.560Z,6.03
2023-05-08T20:25:20.013Z,4.32
2023-05-08T20:27:46.434Z,5.30
2023-05-08T20:30:13.194Z,4.65
2023-05-08T20:32:39.994Z,3.05
2023-05-08T20:35:06.860Z,6.47
2023-05-08T20:37:33.279Z,4.72
2023-05-08T20:40:01.719Z,5.10
2023-05-08T20:42:28.265Z,8.10
2023-05-08T20:44:54.719Z,5.13
2023-05-08T20:47:21.138Z,3.72
2023-05-08T20:49:47.571Z,5.97
2023-05-08T20:52:13.967Z,5.85
2023-05-08T20:54:40.387Z,6.15
2023-05-08T20:57:06.801Z,4.85
2023-05-08T20:59:33.206Z,3.03
2023-05-08T21:01:59.651Z,6.05
2023-05-08T21:04:26.158Z,6.78
2023-05-08T21:06:52.883Z,5.57
2023-05-08T21:09:19.383Z,7.68
2023-05-08T21:11:45.812Z,4.57
2023-05-08T21:14:12.342Z,5.20
2023-05-08T21:16:39.126Z,4.38
2023-05-08T21:19:05.546Z,4.53
2023-05-08T21:21:32.006Z,5.60
2023-05-08T21:23:58.426Z,5.63
2023-05-08T21:26:25.133Z,6.22
2023-05-08T21:28:53.594Z,5.88
2023-05-08T21:31:20.331Z,4.57
2023-05-08T21:33:46.828Z,4.40
2023-05-08T21:36:13.347Z,4.45
2023-05-08T21:38:41.077Z,6.00
2023-05-08T21:41:08.322Z,5.72
2023-05-08T21:43:38.705Z,15.65
2023-05-08T21:46:06.530Z,3.45
2023-05-08T21:48:33.576Z,4.20
2023-05-08T21:51:00.073Z,4.90
2023-05-08T21:53:28.503Z,4.85
2023-05-08T21:55:54.976Z,5.10
2023-05-08T21:58:21.452Z,6.15
2023-05-08T22:00:47.875Z,4.45
2023-05-08T22:03:14.576Z,6.43
2023-05-08T22:05:41.375Z,4.43
2023-05-08T22:08:07.837Z,6.72
2023-05-08T22:10:34.406Z,4.35
2023-05-08T22:13:01.729Z,5.55
2023-05-08T22:15:30.724Z,5.32
2023-05-08T22:17:58.681Z,3.97
2023-05-08T22:20:25.476Z,6.13
2023-05-08T22:22:52.330Z,5.65
2023-05-08T22:25:18.839Z,5.47
2023-05-08T22:27:45.343Z,3.60
2023-05-08T22:30:11.909Z,5.50
2023-05-08T22:32:38.500Z,7.20
2023-05-08T22:35:06.118Z,6.75
2023-05-08T22:37:32.561Z,5.85
2023-05-08T22:39:58.975Z,5.38
2023-05-08T22:42:25.919Z,3.78
2023-05-08T22:44:52.597Z,4.28
2023-05-08T22:47:19.162Z,5.60
2023-05-08T22:49:46.290Z,4.72
2023-05-08T22:52:12.700Z,6.05
2023-05-08T22:54:39.132Z,4.85
2023-05-08T22:57:05.769Z,5.78
2023-05-08T22:59:32.238Z,6.13
2023-05-08T23:01:58.648Z,7.20
2023-05-08T23:04:25.127Z,6.35
2023-05-08T23:06:51.563Z,6.97
2023-05-08T23:09:18.036Z,4.45
2023-05-08T23:11:44.511Z,6.53
2023-05-08T23:14:10.932Z,4.28
2023-05-08T23:16:37.390Z,4.85
2023-05-08T23:19:04.588Z,7.38
2023-05-08T23:21:32.050Z,4.57
2023-05-08T23:23:58.906Z,5.15
2023-05-08T23:26:26.036Z,6.82
2023-05-08T23:28:52.500Z,4.40
2023-05-08T23:31:18.957Z,5.13
2023-05-08T23:33:45.376Z,5.97
2023-05-08T23:36:11.810Z,6.50
2023-05-08T23:38:38.199Z,6.30
2023-05-08T23:41:04.610Z,5.40
2023-05-08T23:43:31.303Z,6.65
2023-05-08T23:45:58.059Z,4.75
2023-05-08T23:48:25.791Z,6.63
2023-05-08T23:50:52.338Z,6.50
2023-05-08T23:53:18.794Z,5.53
2023-05-08T23:55:45.184Z,5.53
2023-05-08T23:58:11.615Z,5.40
